sensor_id;sensor_type;location;lat;lon;timestamp;P1;durP1;ratioP1;P2;durP2;ratioP2
9138;SDS011;4604;48.616;9.548;2023-02-01T00:00:26;3.67;;;2.73;;
9138;SDS011;4604;48.616;9.548;2023-02-01T00:02:53;2.97;;;2.27;;
9138;SDS011;4604;48.616;9.548;2023-02-01T00:05:19;3.93;;;2.70;;
9138;SDS011;4604;48.616;9.548;2023-02-01T00:07:46;3.70;;;2.30;;
9138;SDS011;4604;48.616;9.548;2023-02-01T00:10:14;2.77;;;2.30;;
9138;SDS011;4604;48.616;9.548;2023-02-01T00:12:41;3.27;;;2.40;;
9138;SDS011;4604;48.616;9.548;2023-02-01T00:15:09;2.77;;;1.97;;
9138;SDS011;4604;48.616;9.548;2023-02-01T00:17:36;2.53;;;2.03;;
9138;SDS011;4604;48.616;9.548;2023-02-01T00:20:02;3.20;;;2.30;;
9138;SDS011;4604;48.616;9.548;2023-02-01T00:22:29;2.70;;;1.90;;
9138;SDS011;4604;48.616;9.548;2023-02-01T00:24:56;2.60;;;2.13;;
9138;SDS011;4604;48.616;9.548;2023-02-01T00:27:22;2.30;;;1.73;;
9138;SDS011;4604;48.616;9.548;2023-02-01T00:29:49;2.03;;;1.83;;
9138;SDS011;4604;48.616;9.548;2023-02-01T00:32:17;2.30;;;1.70;;
9138;SDS011;4604;48.616;9.548;2023-02-01T00:34:44;2.13;;;1.90;;
9138;SDS011;4604;48.616;9.548;2023-02-01T00:37:10;2.23;;;1.93;;
9138;SDS011;4604;48.616;9.548;2023-02-01T00:39:37;2.27;;;1.73;;
9138;SDS011;4604;48.616;9.548;2023-02-01T00:42:04;1.83;;;1.57;;
9138;SDS011;4604;48.616;9.548;2023-02-01T00:44:30;2.10;;;1.50;;
9138;SDS011;4604;48.616;9.548;2023-02-01T00:46:59;2.60;;;1.73;;
9138;SDS011;4604;48.616;9.548;2023-02-01T00:49:27;3.27;;;2.00;;
9138;SDS011;4604;48.616;9.548;2023-02-01T00:51:54;4.10;;;2.10;;
9138;SDS011;4604;48.616;9.548;2023-02-01T00:54:21;1.90;;;1.70;;
9138;SDS011;4604;48.616;9.548;2023-02-01T00:56:48;1.63;;;1.40;;
9138;SDS011;4604;48.616;9.548;2023-02-01T00:59:14;2.17;;;1.60;;
9138;SDS011;4604;48.616;9.548;2023-02-01T01:01:41;2.37;;;2.07;;
9138;SDS011;4604;48.616;9.548;2023-02-01T01:04:08;2.07;;;1.60;;
9138;SDS011;4604;48.616;9.548;2023-02-01T01:06:36;2.67;;;1.70;;
9138;SDS011;4604;48.616;9.548;2023-02-01T01:09:03;2.10;;;1.73;;
9138;SDS011;4604;48.616;9.548;2023-02-01T01:11:33;2.77;;;1.80;;
9138;SDS011;4604;48.616;9.548;2023-02-01T01:14:02;2.10;;;1.60;;
9138;SDS011;4604;48.616;9.548;2023-02-01T01:16:30;1.97;;;1.57;;
9138;SDS011;4604;48.616;9.548;2023-02-01T01:18:57;2.00;;;1.40;;
9138;SDS011;4604;48.616;9.548;2023-02-01T01:21:24;2.13;;;1.80;;
9138;SDS011;4604;48.616;9.548;2023-02-01T01:23:53;1.87;;;1.57;;
9138;SDS011;4604;48.616;9.548;2023-02-01T01:26:20;3.50;;;1.70;;
9138;SDS011;4604;48.616;9.548;2023-02-01T01:28:48;2.97;;;1.57;;
9138;SDS011;4604;48.616;9.548;2023-02-01T01:31:17;2.07;;;1.50;;
9138;SDS011;4604;48.616;9.548;2023-02-01T01:33:46;2.13;;;1.87;;
9138;SDS011;4604;48.616;9.548;2023-02-01T01:36:14;1.50;;;1.40;;
9138;SDS011;4604;48.616;9.548;2023-02-01T01:38:41;1.53;;;1.43;;
9138;SDS011;4604;48.616;9.548;2023-02-01T01:41:12;1.53;;;1.43;;
9138;SDS011;4604;48.616;9.548;2023-02-01T01:43:53;2.30;;;1.47;;
9138;SDS011;4604;48.616;9.548;2023-02-01T01:46:21;1.80;;;1.60;;
9138;SDS011;4604;48.616;9.548;2023-02-01T01:48:50;1.57;;;1.43;;
9138;SDS011;4604;48.616;9.548;2023-02-01T01:51:22;1.70;;;1.33;;
9138;SDS011;4604;48.616;9.548;2023-02-01T01:53:53;1.30;;;1.20;;
9138;SDS011;4604;48.616;9.548;2023-02-01T01:56:27;1.80;;;1.50;;
9138;SDS011;4604;48.616;9.548;2023-02-01T01:58:55;1.50;;;1.40;;
9138;SDS011;4604;48.616;9.548;2023-02-01T02:01:22;1.63;;;1.33;;
9138;SDS011;4604;48.616;9.548;2023-02-01T02:03:49;1.40;;;1.30;;
9138;SDS011;4604;48.616;9.548;2023-02-01T02:06:20;2.67;;;1.50;;
9138;SDS011;4604;48.616;9.548;2023-02-01T02:08:57;1.60;;;1.50;;
9138;SDS011;4604;48.616;9.548;2023-02-01T02:11:24;1.67;;;1.37;;
9138;SDS011;4604;48.616;9.548;2023-02-01T02:13:53;1.77;;;1.57;;
9138;SDS011;4604;48.616;9.548;2023-02-01T02:16:36;1.10;;;1.00;;
9138;SDS011;4604;48.616;9.548;2023-02-01T02:19:15;1.67;;;1.50;;
9138;SDS011;4604;48.616;9.548;2023-02-01T02:22:04;3.27;;;1.30;;
9138;SDS011;4604;48.616;9.548;2023-02-01T02:25:18;1.50;;;1.33;;
9138;SDS011;4604;48.616;9.548;2023-02-01T02:27:56;1.50;;;1.40;;
9138;SDS011;4604;48.616;9.548;2023-02-01T02:30:35;1.67;;;1.20;;
9138;SDS011;4604;48.616;9.548;2023-02-01T02:36:17;1.93;;;1.40;;
9138;SDS011;4604;48.616;9.548;2023-02-01T02:38:50;1.30;;;1.20;;
9138;SDS011;4604;48.616;9.548;2023-02-01T02:41:24;1.77;;;1.53;;
9138;SDS011;4604;48.616;9.548;2023-02-01T02:44:18;1.77;;;1.63;;
9138;SDS011;4604;48.616;9.548;2023-02-01T02:47:10;1.57;;;1.40;;
9138;SDS011;4604;48.616;9.548;2023-02-01T02:49:52;2.10;;;1.53;;
9138;SDS011;4604;48.616;9.548;2023-02-01T02:52:41;1.67;;;1.57;;
9138;SDS011;4604;48.616;9.548;2023-02-01T02:55:29;1.73;;;1.60;;
9138;SDS011;4604;48.616;9.548;2023-02-01T02:58:00;1.57;;;1.47;;
9138;SDS011;4604;48.616;9.548;2023-02-01T03:00:48;2.03;;;1.80;;
9138;SDS011;4604;48.616;9.548;2023-02-01T03:03:35;3.80;;;1.67;;
9138;SDS011;4604;48.616;9.548;2023-02-01T03:06:22;1.70;;;1.57;;
9138;SDS011;4604;48.616;9.548;2023-02-01T03:08:49;2.43;;;2.00;;
9138;SDS011;4604;48.616;9.548;2023-02-01T03:11:19;2.43;;;1.70;;
9138;SDS011;4604;48.616;9.548;2023-02-01T03:13:48;2.47;;;2.10;;
9138;SDS011;4604;48.616;9.548;2023-02-01T03:16:17;2.10;;;1.90;;
9138;SDS011;4604;48.616;9.548;2023-02-01T03:18:52;2.57;;;2.20;;
9138;SDS011;4604;48.616;9.548;2023-02-01T03:21:26;3.87;;;2.43;;
9138;SDS011;4604;48.616;9.548;2023-02-01T03:23:58;2.83;;;2.00;;
9138;SDS011;4604;48.616;9.548;2023-02-01T03:26:29;4.17;;;2.03;;
9138;SDS011;4604;48.616;9.548;2023-02-01T03:29:02;2.23;;;1.90;;
9138;SDS011;4604;48.616;9.548;2023-02-01T03:31:35;2.30;;;2.10;;
9138;SDS011;4604;48.616;9.548;2023-02-01T03:34:01;3.57;;;2.27;;
9138;SDS011;4604;48.616;9.548;2023-02-01T03:36:31;1.87;;;1.70;;
9138;SDS011;4604;48.616;9.548;2023-02-01T03:39:04;2.20;;;1.97;;
9138;SDS011;4604;48.616;9.548;2023-02-01T03:41:39;2.07;;;1.87;;
9138;SDS011;4604;48.616;9.548;2023-02-01T03:44:09;2.50;;;2.07;;
9138;SDS011;4604;48.616;9.548;2023-02-01T03:46:40;2.07;;;1.87;;
9138;SDS011;4604;48.616;9.548;2023-02-01T03:49:11;2.43;;;1.87;;
9138;SDS011;4604;48.616;9.548;2023-02-01T03:51:46;2.30;;;1.80;;
9138;SDS011;4604;48.616;9.548;2023-02-01T03:54:16;3.07;;;2.10;;
9138;SDS011;4604;48.616;9.548;2023-02-01T03:56:45;1.50;;;1.40;;
9138;SDS011;4604;48.616;9.548;2023-02-01T03:59:14;1.83;;;1.53;;
9138;SDS011;4604;48.616;9.548;2023-02-01T04:01:41;1.50;;;1.40;;
9138;SDS011;4604;48.616;9.548;2023-02-01T04:04:07;2.10;;;1.50;;
9138;SDS011;4604;48.616;9.548;2023-02-01T04:06:34;2.17;;;1.90;;
9138;SDS011;4604;48.616;9.548;2023-02-01T04:09:02;2.13;;;1.80;;
9138;SDS011;4604;48.616;9.548;2023-02-01T04:11:29;2.53;;;1.90;;
9138;SDS011;4604;48.616;9.548;2023-02-01T04:13:55;2.10;;;1.90;;
9138;SDS011;4604;48.616;9.548;2023-02-01T04:16:22;3.07;;;1.80;;
9138;SDS011;4604;48.616;9.548;2023-02-01T04:18:49;2.00;;;1.80;;
9138;SDS011;4604;48.616;9.548;2023-02-01T04:21:15;2.00;;;1.80;;
9138;SDS011;4604;48.616;9.548;2023-02-01T04:23:42;1.70;;;1.60;;
9138;SDS011;4604;48.616;9.548;2023-02-01T04:26:10;2.10;;;1.60;;
9138;SDS011;4604;48.616;9.548;2023-02-01T04:28:37;2.50;;;2.07;;
9138;SDS011;4604;48.616;9.548;2023-02-01T04:31:03;2.57;;;1.60;;
9138;SDS011;4604;48.616;9.548;2023-02-01T04:33:30;2.80;;;1.77;;
9138;SDS011;4604;48.616;9.548;2023-02-01T04:35:57;2.00;;;1.70;;
9138;SDS011;4604;48.616;9.548;2023-02-01T04:38:23;3.03;;;1.80;;
9138;SDS011;4604;48.616;9.548;2023-02-01T04:40:50;2.53;;;1.93;;
9138;SDS011;4604;48.616;9.548;2023-02-01T04:43:18;2.60;;;2.00;;
9138;SDS011;4604;48.616;9.548;2023-02-01T04:45:47;1.83;;;1.70;;
9138;SDS011;4604;48.616;9.548;2023-02-01T04:48:15;2.60;;;2.00;;
9138;SDS011;4604;48.616;9.548;2023-02-01T04:50:42;2.30;;;1.70;;
9138;SDS011;4604;48.616;9.548;2023-02-01T04:53:10;1.70;;;1.53;;
9138;SDS011;4604;48.616;9.548;2023-02-01T04:55:36;2.17;;;1.80;;
9138;SDS011;4604;48.616;9.548;2023-02-01T04:58:03;2.07;;;1.80;;
9138;SDS011;4604;48.616;9.548;2023-02-01T05:00:31;1.83;;;1.47;;
9138;SDS011;4604;48.616;9.548;2023-02-01T05:02:58;5.77;;;2.50;;
9138;SDS011;4604;48.616;9.548;2023-02-01T05:05:24;3.00;;;2.00;;
9138;SDS011;4604;48.616;9.548;2023-02-01T05:07:52;2.40;;;2.10;;
9138;SDS011;4604;48.616;9.548;2023-02-01T05:10:19;1.53;;;1.43;;
9138;SDS011;4604;48.616;9.548;2023-02-01T05:12:45;1.97;;;1.77;;
9138;SDS011;4604;48.616;9.548;2023-02-01T05:15:30;3.00;;;1.57;;
9138;SDS011;4604;48.616;9.548;2023-02-01T05:17:58;2.63;;;1.77;;
9138;SDS011;4604;48.616;9.548;2023-02-01T05:20:25;3.47;;;1.30;;
9138;SDS011;4604;48.616;9.548;2023-02-01T05:22:52;1.47;;;1.37;;
9138;SDS011;4604;48.616;9.548;2023-02-01T05:25:18;1.97;;;1.50;;
9138;SDS011;4604;48.616;9.548;2023-02-01T05:27:45;1.60;;;1.50;;
9138;SDS011;4604;48.616;9.548;2023-02-01T05:30:12;1.60;;;1.50;;
9138;SDS011;4604;48.616;9.548;2023-02-01T05:32:40;2.27;;;2.00;;
9138;SDS011;4604;48.616;9.548;2023-02-01T05:35:07;2.50;;;1.97;;
9138;SDS011;4604;48.616;9.548;2023-02-01T05:37:35;2.67;;;1.70;;
9138;SDS011;4604;48.616;9.548;2023-02-01T05:40:02;2.00;;;1.80;;
9138;SDS011;4604;48.616;9.548;2023-02-01T05:42:29;1.77;;;1.67;;
9138;SDS011;4604;48.616;9.548;2023-02-01T05:44:55;3.47;;;1.60;;
9138;SDS011;4604;48.616;9.548;2023-02-01T05:47:22;1.97;;;1.70;;
9138;SDS011;4604;48.616;9.548;2023-02-01T05:49:50;3.23;;;1.73;;
9138;SDS011;4604;48.616;9.548;2023-02-01T05:52:16;2.73;;;1.70;;
9138;SDS011;4604;48.616;9.548;2023-02-01T05:54:44;2.20;;;1.70;;
9138;SDS011;4604;48.616;9.548;2023-02-01T05:57:11;2.63;;;1.50;;
9138;SDS011;4604;48.616;9.548;2023-02-01T05:59:37;3.63;;;1.70;;
9138;SDS011;4604;48.616;9.548;2023-02-01T06:02:06;3.43;;;1.80;;
9138;SDS011;4604;48.616;9.548;2023-02-01T06:04:32;2.37;;;1.90;;
9138;SDS011;4604;48.616;9.548;2023-02-01T06:07:00;2.23;;;1.67;;
9138;SDS011;4604;48.616;9.548;2023-02-01T06:09:27;1.50;;;1.40;;
9138;SDS011;4604;48.616;9.548;2023-02-01T06:11:54;1.80;;;1.57;;
9138;SDS011;4604;48.616;9.548;2023-02-01T06:14:20;2.43;;;1.80;;
9138;SDS011;4604;48.616;9.548;2023-02-01T06:16:47;1.63;;;1.40;;
9138;SDS011;4604;48.616;9.548;2023-02-01T06:19:13;2.47;;;1.60;;
9138;SDS011;4604;48.616;9.548;2023-02-01T06:21:40;3.03;;;1.83;;
9138;SDS011;4604;48.616;9.548;2023-02-01T06:24:09;5.87;;;1.90;;
9138;SDS011;4604;48.616;9.548;2023-02-01T06:26:36;2.97;;;1.83;;
9138;SDS011;4604;48.616;9.548;2023-02-01T06:29:04;2.60;;;1.80;;
9138;SDS011;4604;48.616;9.548;2023-02-01T06:31:31;2.60;;;1.97;;
9138;SDS011;4604;48.616;9.548;2023-02-01T06:33:58;2.73;;;2.07;;
9138;SDS011;4604;48.616;9.548;2023-02-01T06:36:25;3.87;;;2.20;;
9138;SDS011;4604;48.616;9.548;2023-02-01T06:38:51;3.27;;;2.33;;
9138;SDS011;4604;48.616;9.548;2023-02-01T06:41:20;3.57;;;2.17;;
9138;SDS011;4604;48.616;9.548;2023-02-01T06:43:46;3.27;;;1.90;;
9138;SDS011;4604;48.616;9.548;2023-02-01T06:46:13;3.37;;;1.87;;
9138;SDS011;4604;48.616;9.548;2023-02-01T06:48:40;1.77;;;1.63;;
9138;SDS011;4604;48.616;9.548;2023-02-01T06:51:15;2.27;;;2.00;;
9138;SDS011;4604;48.616;9.548;2023-02-01T06:53:45;3.93;;;2.20;;
9138;SDS011;4604;48.616;9.548;2023-02-01T06:56:12;2.07;;;1.87;;
9138;SDS011;4604;48.616;9.548;2023-02-01T06:58:40;3.97;;;2.07;;
9138;SDS011;4604;48.616;9.548;2023-02-01T07:01:07;2.70;;;2.10;;
9138;SDS011;4604;48.616;9.548;2023-02-01T07:03:35;2.47;;;1.90;;
9138;SDS011;4604;48.616;9.548;2023-02-01T07:06:02;2.27;;;2.00;;
9138;SDS011;4604;48.616;9.548;2023-02-01T07:08:30;3.03;;;2.30;;
9138;SDS011;4604;48.616;9.548;2023-02-01T07:11:00;4.37;;;2.07;;
9138;SDS011;4604;48.616;9.548;2023-02-01T07:13:27;1.90;;;1.70;;
9138;SDS011;4604;48.616;9.548;2023-02-01T07:15:58;1.97;;;1.77;;
9138;SDS011;4604;48.616;9.548;2023-02-01T07:18:25;1.97;;;1.70;;
9138;SDS011;4604;48.616;9.548;2023-02-01T07:20:52;3.67;;;1.90;;
9138;SDS011;4604;48.616;9.548;2023-02-01T07:23:19;2.67;;;1.73;;
9138;SDS011;4604;48.616;9.548;2023-02-01T07:25:45;3.53;;;2.00;;
9138;SDS011;4604;48.616;9.548;2023-02-01T07:28:12;3.87;;;2.17;;
9138;SDS011;4604;48.616;9.548;2023-02-01T07:30:39;2.37;;;1.73;;
9138;SDS011;4604;48.616;9.548;2023-02-01T07:33:08;3.33;;;2.03;;
9138;SDS011;4604;48.616;9.548;2023-02-01T07:35:34;2.93;;;2.20;;
9138;SDS011;4604;48.616;9.548;2023-02-01T07:38:01;2.03;;;1.70;;
9138;SDS011;4604;48.616;9.548;2023-02-01T07:40:27;2.37;;;2.00;;
9138;SDS011;4604;48.616;9.548;2023-02-01T07:42:55;3.53;;;2.30;;
9138;SDS011;4604;48.616;9.548;2023-02-01T07:45:22;3.93;;;2.07;;
9138;SDS011;4604;48.616;9.548;2023-02-01T07:47:51;3.53;;;2.60;;
9138;SDS011;4604;48.616;9.548;2023-02-01T07:50:19;4.00;;;2.13;;
9138;SDS011;4604;48.616;9.548;2023-02-01T07:52:46;2.27;;;1.83;;
9138;SDS011;4604;48.616;9.548;2023-02-01T07:55:13;2.27;;;1.77;;
9138;SDS011;4604;48.616;9.548;2023-02-01T07:57:39;1.80;;;1.70;;
9138;SDS011;4604;48.616;9.548;2023-02-01T08:00:07;2.53;;;1.90;;
9138;SDS011;4604;48.616;9.548;2023-02-01T08:02:52;4.53;;;1.87;;
9138;SDS011;4604;48.616;9.548;2023-02-01T08:05:20;2.93;;;2.20;;
9138;SDS011;4604;48.616;9.548;2023-02-01T08:07:48;3.47;;;2.20;;
9138;SDS011;4604;48.616;9.548;2023-02-01T08:10:15;3.00;;;2.10;;
9138;SDS011;4604;48.616;9.548;2023-02-01T08:12:42;3.00;;;2.00;;
9138;SDS011;4604;48.616;9.548;2023-02-01T08:15:12;2.07;;;1.77;;
9138;SDS011;4604;48.616;9.548;2023-02-01T08:17:40;2.83;;;1.80;;
9138;SDS011;4604;48.616;9.548;2023-02-01T08:20:07;2.73;;;2.10;;
9138;SDS011;4604;48.616;9.548;2023-02-01T08:22:36;4.90;;;2.90;;
9138;SDS011;4604;48.616;9.548;2023-02-01T08:25:03;4.30;;;2.80;;
9138;SDS011;4604;48.616;9.548;2023-02-01T08:27:32;3.97;;;2.50;;
9138;SDS011;4604;48.616;9.548;2023-02-01T08:29:58;3.50;;;2.30;;
9138;SDS011;4604;48.616;9.548;2023-02-01T08:32:25;4.20;;;2.20;;
9138;SDS011;4604;48.616;9.548;2023-02-01T08:34:52;5.93;;;3.50;;
9138;SDS011;4604;48.616;9.548;2023-02-01T08:37:19;4.27;;;2.83;;
9138;SDS011;4604;48.616;9.548;2023-02-01T08:39:47;4.43;;;3.00;;
9138;SDS011;4604;48.616;9.548;2023-02-01T08:42:15;5.20;;;3.00;;
9138;SDS011;4604;48.616;9.548;2023-02-01T08:45:08;3.80;;;2.70;;
9138;SDS011;4604;48.616;9.548;2023-02-01T08:47:35;6.30;;;2.97;;
9138;SDS011;4604;48.616;9.548;2023-02-01T08:50:02;4.13;;;2.73;;
9138;SDS011;4604;48.616;9.548;2023-02-01T08:52:29;6.17;;;2.87;;
9138;SDS011;4604;48.616;9.548;2023-02-01T08:54:57;7.93;;;3.33;;
9138;SDS011;4604;48.616;9.548;2023-02-01T08:57:23;7.77;;;3.03;;
9138;SDS011;4604;48.616;9.548;2023-02-01T08:59:50;5.83;;;2.57;;
9138;SDS011;4604;48.616;9.548;2023-02-01T09:02:17;5.87;;;3.23;;
9138;SDS011;4604;48.616;9.548;2023-02-01T09:04:44;4.87;;;2.90;;
9138;SDS011;4604;48.616;9.548;2023-02-01T09:07:10;3.07;;;2.20;;
9138;SDS011;4604;48.616;9.548;2023-02-01T09:09:38;4.23;;;2.50;;
9138;SDS011;4604;48.616;9.548;2023-02-01T09:12:06;5.20;;;2.80;;
9138;SDS011;4604;48.616;9.548;2023-02-01T09:14:32;4.03;;;2.10;;
9138;SDS011;4604;48.616;9.548;2023-02-01T09:16:59;4.90;;;2.50;;
9138;SDS011;4604;48.616;9.548;2023-02-01T09:19:26;5.30;;;2.30;;
9138;SDS011;4604;48.616;9.548;2023-02-01T09:21:52;3.57;;;2.27;;
9138;SDS011;4604;48.616;9.548;2023-02-01T09:24:19;4.33;;;2.30;;
9138;SDS011;4604;48.616;9.548;2023-02-01T09:26:46;3.00;;;2.10;;
9138;SDS011;4604;48.616;9.548;2023-02-01T09:29:14;3.90;;;2.30;;
9138;SDS011;4604;48.616;9.548;2023-02-01T09:31:41;4.53;;;2.47;;
9138;SDS011;4604;48.616;9.548;2023-02-01T09:34:08;3.37;;;2.23;;
9138;SDS011;4604;48.616;9.548;2023-02-01T09:36:36;2.83;;;2.07;;
9138;SDS011;4604;48.616;9.548;2023-02-01T09:39:03;3.70;;;2.07;;
9138;SDS011;4604;48.616;9.548;2023-02-01T09:41:32;6.13;;;2.40;;
9138;SDS011;4604;48.616;9.548;2023-02-01T09:44:08;3.60;;;2.30;;
9138;SDS011;4604;48.616;9.548;2023-02-01T09:46:43;2.27;;;1.93;;
9138;SDS011;4604;48.616;9.548;2023-02-01T09:49:12;6.67;;;2.23;;
9138;SDS011;4604;48.616;9.548;2023-02-01T09:51:43;6.60;;;2.50;;
9138;SDS011;4604;48.616;9.548;2023-02-01T09:54:13;3.70;;;2.50;;
9138;SDS011;4604;48.616;9.548;2023-02-01T09:56:44;4.47;;;2.40;;
9138;SDS011;4604;48.616;9.548;2023-02-01T09:59:23;5.37;;;2.27;;
9138;SDS011;4604;48.616;9.548;2023-02-01T10:01:58;3.73;;;2.63;;
9138;SDS011;4604;48.616;9.548;2023-02-01T10:04:25;5.97;;;2.77;;
9138;SDS011;4604;48.616;9.548;2023-02-01T10:06:56;5.97;;;1.90;;
9138;SDS011;4604;48.616;9.548;2023-02-01T10:09:37;6.50;;;3.13;;
9138;SDS011;4604;48.616;9.548;2023-02-01T10:12:29;6.23;;;2.50;;
9138;SDS011;4604;48.616;9.548;2023-02-01T10:15:17;10.03;;;2.50;;
9138;SDS011;4604;48.616;9.548;2023-02-01T10:17:56;6.77;;;2.70;;
9138;SDS011;4604;48.616;9.548;2023-02-01T10:20:36;4.40;;;2.90;;
9138;SDS011;4604;48.616;9.548;2023-02-01T10:23:19;7.43;;;2.73;;
9138;SDS011;4604;48.616;9.548;2023-02-01T10:26:03;3.90;;;2.40;;
9138;SDS011;4604;48.616;9.548;2023-02-01T10:28:36;3.27;;;2.43;;
9138;SDS011;4604;48.616;9.548;2023-02-01T10:31:06;8.73;;;3.00;;
9138;SDS011;4604;48.616;9.548;2023-02-01T10:33:36;6.63;;;2.17;;
9138;SDS011;4604;48.616;9.548;2023-02-01T10:36:10;6.77;;;2.90;;
9138;SDS011;4604;48.616;9.548;2023-02-01T10:38:43;7.37;;;2.60;;
9138;SDS011;4604;48.616;9.548;2023-02-01T10:41:11;6.17;;;2.60;;
9138;SDS011;4604;48.616;9.548;2023-02-01T10:43:41;4.93;;;2.70;;
9138;SDS011;4604;48.616;9.548;2023-02-01T10:46:10;6.10;;;2.90;;
9138;SDS011;4604;48.616;9.548;2023-02-01T10:48:37;5.97;;;2.50;;
9138;SDS011;4604;48.616;9.548;2023-02-01T10:51:06;7.60;;;2.47;;
9138;SDS011;4604;48.616;9.548;2023-02-01T10:53:39;3.33;;;2.40;;
9138;SDS011;4604;48.616;9.548;2023-02-01T10:56:12;6.90;;;2.10;;
9138;SDS011;4604;48.616;9.548;2023-02-01T10:58:43;10.33;;;2.50;;
9138;SDS011;4604;48.616;9.548;2023-02-01T11:01:15;7.47;;;4.17;;
9138;SDS011;4604;48.616;9.548;2023-02-01T11:03:44;8.47;;;3.53;;
9138;SDS011;4604;48.616;9.548;2023-02-01T11:06:19;9.10;;;3.93;;
9138;SDS011;4604;48.616;9.548;2023-02-01T11:08:52;7.50;;;3.03;;
9138;SDS011;4604;48.616;9.548;2023-02-01T11:11:21;6.93;;;3.10;;
9138;SDS011;4604;48.616;9.548;2023-02-01T11:13:56;10.07;;;3.10;;
9138;SDS011;4604;48.616;9.548;2023-02-01T11:16:33;7.07;;;2.80;;
9138;SDS011;4604;48.616;9.548;2023-02-01T11:19:01;6.27;;;3.13;;
9138;SDS011;4604;48.616;9.548;2023-02-01T11:21:28;8.83;;;2.93;;
9138;SDS011;4604;48.616;9.548;2023-02-01T11:23:55;5.13;;;2.87;;
9138;SDS011;4604;48.616;9.548;2023-02-01T11:26:27;11.37;;;2.83;;
9138;SDS011;4604;48.616;9.548;2023-02-01T11:28:56;6.60;;;2.63;;
9138;SDS011;4604;48.616;9.548;2023-02-01T11:31:26;6.03;;;2.60;;
9138;SDS011;4604;48.616;9.548;2023-02-01T11:33:57;8.23;;;2.77;;
9138;SDS011;4604;48.616;9.548;2023-02-01T11:36:26;4.27;;;2.50;;
9138;SDS011;4604;48.616;9.548;2023-02-01T11:39:07;6.40;;;2.60;;
9138;SDS011;4604;48.616;9.548;2023-02-01T11:41:42;7.50;;;2.70;;
9138;SDS011;4604;48.616;9.548;2023-02-01T11:44:18;4.37;;;2.50;;
9138;SDS011;4604;48.616;9.548;2023-02-01T11:46:48;5.30;;;3.00;;
9138;SDS011;4604;48.616;9.548;2023-02-01T11:49:21;6.27;;;2.63;;
9138;SDS011;4604;48.616;9.548;2023-02-01T11:52:03;7.23;;;2.80;;
9138;SDS011;4604;48.616;9.548;2023-02-01T11:54:42;6.17;;;2.57;;
9138;SDS011;4604;48.616;9.548;2023-02-01T11:57:25;8.50;;;3.00;;
9138;SDS011;4604;48.616;9.548;2023-02-01T12:00:02;5.83;;;3.07;;
9138;SDS011;4604;48.616;9.548;2023-02-01T12:02:49;4.67;;;2.83;;
9138;SDS011;4604;48.616;9.548;2023-02-01T12:05:29;8.57;;;2.53;;
9138;SDS011;4604;48.616;9.548;2023-02-01T12:08:04;7.20;;;3.17;;
9138;SDS011;4604;48.616;9.548;2023-02-01T12:10:44;9.13;;;2.60;;
9138;SDS011;4604;48.616;9.548;2023-02-01T12:13:27;5.87;;;2.80;;
9138;SDS011;4604;48.616;9.548;2023-02-01T12:16:09;7.70;;;2.43;;
9138;SDS011;4604;48.616;9.548;2023-02-01T12:24:44;5.17;;;2.57;;
9138;SDS011;4604;48.616;9.548;2023-02-01T12:27:34;4.77;;;2.70;;
9138;SDS011;4604;48.616;9.548;2023-02-01T12:30:16;8.40;;;3.47;;
9138;SDS011;4604;48.616;9.548;2023-02-01T12:33:00;6.53;;;2.73;;
9138;SDS011;4604;48.616;9.548;2023-02-01T12:35:38;5.63;;;2.50;;
9138;SDS011;4604;48.616;9.548;2023-02-01T12:38:27;6.97;;;2.27;;
9138;SDS011;4604;48.616;9.548;2023-02-01T12:41:09;4.47;;;2.67;;
9138;SDS011;4604;48.616;9.548;2023-02-01T12:43:46;4.93;;;2.60;;
9138;SDS011;4604;48.616;9.548;2023-02-01T12:46:21;7.47;;;2.63;;
9138;SDS011;4604;48.616;9.548;2023-02-01T12:48:53;6.83;;;2.63;;
9138;SDS011;4604;48.616;9.548;2023-02-01T12:51:23;11.80;;;2.67;;
9138;SDS011;4604;48.616;9.548;2023-02-01T12:53:55;4.20;;;2.77;;
9138;SDS011;4604;48.616;9.548;2023-02-01T12:56:28;5.30;;;2.30;;
9138;SDS011;4604;48.616;9.548;2023-02-01T12:58:58;6.97;;;2.60;;
9138;SDS011;4604;48.616;9.548;2023-02-01T13:01:28;4.77;;;2.40;;
9138;SDS011;4604;48.616;9.548;2023-02-01T13:04:02;7.03;;;2.30;;
9138;SDS011;4604;48.616;9.548;2023-02-01T13:06:35;9.07;;;3.07;;
9138;SDS011;4604;48.616;9.548;2023-02-01T13:09:13;5.97;;;2.50;;
9138;SDS011;4604;48.616;9.548;2023-02-01T13:11:45;3.67;;;2.20;;
9138;SDS011;4604;48.616;9.548;2023-02-01T13:14:17;5.60;;;2.53;;
9138;SDS011;4604;48.616;9.548;2023-02-01T13:16:51;11.30;;;4.10;;
9138;SDS011;4604;48.616;9.548;2023-02-01T13:19:22;8.40;;;2.87;;
9138;SDS011;4604;48.616;9.548;2023-02-01T13:21:55;7.00;;;2.73;;
9138;SDS011;4604;48.616;9.548;2023-02-01T13:24:32;4.67;;;2.47;;
9138;SDS011;4604;48.616;9.548;2023-02-01T13:27:03;4.17;;;2.40;;
9138;SDS011;4604;48.616;9.548;2023-02-01T13:29:31;5.60;;;2.27;;
9138;SDS011;4604;48.616;9.548;2023-02-01T13:38:15;8.87;;;2.43;;
9138;SDS011;4604;48.616;9.548;2023-02-01T13:41:11;14.03;;;4.10;;
9138;SDS011;4604;48.616;9.548;2023-02-01T13:43:52;5.90;;;2.27;;
9138;SDS011;4604;48.616;9.548;2023-02-01T13:46:21;4.53;;;2.00;;
9138;SDS011;4604;48.616;9.548;2023-02-01T13:48:49;4.53;;;2.37;;
9138;SDS011;4604;48.616;9.548;2023-02-01T13:51:28;10.50;;;2.83;;
9138;SDS011;4604;48.616;9.548;2023-02-01T13:54:03;5.27;;;2.30;;
9138;SDS011;4604;48.616;9.548;2023-02-01T13:56:40;6.20;;;2.47;;
9138;SDS011;4604;48.616;9.548;2023-02-01T14:08:22;5.63;;;2.67;;
9138;SDS011;4604;48.616;9.548;2023-02-01T14:10:51;6.77;;;2.60;;
9138;SDS011;4604;48.616;9.548;2023-02-01T14:13:26;6.60;;;3.00;;
9138;SDS011;4604;48.616;9.548;2023-02-01T14:18:49;5.83;;;2.63;;
9138;SDS011;4604;48.616;9.548;2023-02-01T14:21:25;9.23;;;2.87;;
9138;SDS011;4604;48.616;9.548;2023-02-01T14:23:56;7.03;;;2.77;;
9138;SDS011;4604;48.616;9.548;2023-02-01T14:26:25;10.03;;;2.93;;
9138;SDS011;4604;48.616;9.548;2023-02-01T14:29:14;4.97;;;2.87;;
9138;SDS011;4604;48.616;9.548;2023-02-01T14:31:51;5.30;;;2.77;;
9138;SDS011;4604;48.616;9.548;2023-02-01T14:34:26;6.67;;;2.70;;
9138;SDS011;4604;48.616;9.548;2023-02-01T14:37:00;5.37;;;2.47;;
9138;SDS011;4604;48.616;9.548;2023-02-01T14:42:23;7.67;;;2.33;;
9138;SDS011;4604;48.616;9.548;2023-02-01T14:44:54;9.03;;;2.87;;
9138;SDS011;4604;48.616;9.548;2023-02-01T14:47:41;7.93;;;2.53;;
9138;SDS011;4604;48.616;9.548;2023-02-01T14:50:13;4.17;;;2.53;;
9138;SDS011;4604;48.616;9.548;2023-02-01T14:55:50;7.80;;;2.97;;
9138;SDS011;4604;48.616;9.548;2023-02-01T14:58:23;5.50;;;2.53;;
9138;SDS011;4604;48.616;9.548;2023-02-01T15:01:00;7.17;;;2.80;;
9138;SDS011;4604;48.616;9.548;2023-02-01T15:06:26;6.60;;;2.30;;
9138;SDS011;4604;48.616;9.548;2023-02-01T15:08:57;5.20;;;2.77;;
9138;SDS011;4604;48.616;9.548;2023-02-01T15:11:27;11.27;;;3.13;;
9138;SDS011;4604;48.616;9.548;2023-02-01T15:13:54;10.17;;;3.00;;
9138;SDS011;4604;48.616;9.548;2023-02-01T15:16:24;7.07;;;2.83;;
9138;SDS011;4604;48.616;9.548;2023-02-01T15:19:06;8.90;;;3.17;;
9138;SDS011;4604;48.616;9.548;2023-02-01T15:21:41;5.03;;;2.43;;
9138;SDS011;4604;48.616;9.548;2023-02-01T15:24:11;5.03;;;2.43;;
9138;SDS011;4604;48.616;9.548;2023-02-01T15:26:38;4.90;;;2.30;;
9138;SDS011;4604;48.616;9.548;2023-02-01T15:29:05;7.97;;;2.73;;
9138;SDS011;4604;48.616;9.548;2023-02-01T15:31:37;4.10;;;2.70;;
9138;SDS011;4604;48.616;9.548;2023-02-01T15:34:06;8.33;;;3.33;;
9138;SDS011;4604;48.616;9.548;2023-02-01T15:36:33;8.07;;;3.23;;
9138;SDS011;4604;48.616;9.548;2023-02-01T15:39:15;7.43;;;3.03;;
9138;SDS011;4604;48.616;9.548;2023-02-01T15:41:49;6.10;;;3.13;;
9138;SDS011;4604;48.616;9.548;2023-02-01T15:44:21;11.97;;;3.03;;
9138;SDS011;4604;48.616;9.548;2023-02-01T15:46:58;8.73;;;3.10;;
9138;SDS011;4604;48.616;9.548;2023-02-01T15:49:26;8.10;;;3.23;;
9138;SDS011;4604;48.616;9.548;2023-02-01T15:51:54;8.13;;;3.20;;
9138;SDS011;4604;48.616;9.548;2023-02-01T15:54:23;7.80;;;3.07;;
9138;SDS011;4604;48.616;9.548;2023-02-01T15:56:56;12.57;;;3.17;;
9138;SDS011;4604;48.616;9.548;2023-02-01T15:59:28;8.60;;;2.70;;
9138;SDS011;4604;48.616;9.548;2023-02-01T16:01:59;8.10;;;2.97;;
9138;SDS011;4604;48.616;9.548;2023-02-01T16:04:28;6.73;;;2.60;;
9138;SDS011;4604;48.616;9.548;2023-02-01T16:06:57;8.00;;;3.73;;
9138;SDS011;4604;48.616;9.548;2023-02-01T16:09:34;6.87;;;3.47;;
9138;SDS011;4604;48.616;9.548;2023-02-01T16:12:03;6.37;;;3.03;;
9138;SDS011;4604;48.616;9.548;2023-02-01T16:14:45;6.20;;;3.07;;